UBBB/BAK METAR and TAF weather

Enter ICAO airport designator
Station Type Date Time Source
UBBB METAR 2020/03/29 15:30 UTC NOAA

UBBB 291530Z 14006KT 9999 FEW060CB BKN100 12/05 Q1006 R88/CLRD// NOSIG


Station Type Date Time Source
UBBB Decoded METAR 2020/03/29 15:30 UTC NOAA

Baku / Bine Airport, Azerbaijan (UBBB) 40-27N 050-04E -1M
Mar 29, 2020 - 11:30 AM EDT / 2020.03.29 1530 UTC
Wind: from the SE (140 degrees) at 7 MPH (6 KT):0
Visibility: greater than 7 mile(s):0
Sky conditions: mostly cloudy
Weather: Cumulonimbus clouds observed
Temperature: 53 F (12 C)
Dew Point: 41 F (5 C)
Relative Humidity: 62%
Pressure (altimeter): 29.71 in. Hg (1006 hPa)
ob: UBBB 291530Z 14006KT 9999 FEW060CB BKN100 12/05 Q1006 R88/CLRD// NOSIG
cycle: 15

Station Type Date Time Source
UBBB TAF 2020/03/29 12:09 UTC NOAA

TAF TAF UBBB 291106Z 2912/3012 14005KT CAVOK TX17/2912Z TN05/3002Z
TEMPO 2912/2916 07006KT
BECMG 2916/2918 SCT012 BKN030
TEMPO 2918/3004 VRB04KT 4000 -RA BR SCT008 OVC020
BECMG 3004/3006 18012KT

Example: see airport list